sensor_id;sensor_type;location;lat;lon;timestamp;pressure;altitude;pressure_sealevel;temperature;humidity
27425;BME280;15244;49.088;11.886;2023-09-08T00:01:35;96195.78;;;24.12;38.03
27425;BME280;15244;49.088;11.886;2023-09-08T00:06:37;96193.31;;;24.05;38.04
27425;BME280;15244;49.088;11.886;2023-09-08T00:11:38;96197.94;;;23.99;38.29
27425;BME280;15244;49.088;11.886;2023-09-08T00:16:40;96194.22;;;23.93;38.33
27425;BME280;15244;49.088;11.886;2023-09-08T00:21:44;96192.50;;;23.86;38.58
27425;BME280;15244;49.088;11.886;2023-09-08T00:26:45;96189.56;;;23.81;38.31
27425;BME280;15244;49.088;11.886;2023-09-08T00:31:47;96181.81;;;23.75;38.53
27425;BME280;15244;49.088;11.886;2023-09-08T00:36:49;96180.38;;;23.71;38.72
27425;BME280;15244;49.088;11.886;2023-09-08T00:41:51;96183.75;;;23.66;38.70
27425;BME280;15244;49.088;11.886;2023-09-08T00:46:53;96183.59;;;23.60;38.85
27425;BME280;15244;49.088;11.886;2023-09-08T00:51:55;96167.94;;;23.53;38.91
27425;BME280;15244;49.088;11.886;2023-09-08T00:56:57;96180.13;;;23.47;38.90
27425;BME280;15244;49.088;11.886;2023-09-08T01:01:59;96181.97;;;23.41;38.92
27425;BME280;15244;49.088;11.886;2023-09-08T01:07:01;96180.53;;;23.36;39.22
27425;BME280;15244;49.088;11.886;2023-09-08T01:12:05;96183.91;;;23.31;39.36
27425;BME280;15244;49.088;11.886;2023-09-08T01:17:08;96187.75;;;23.24;39.54
27425;BME280;15244;49.088;11.886;2023-09-08T01:27:45;96185.97;;;23.08;39.77
27425;BME280;15244;49.088;11.886;2023-09-08T01:32:48;96182.56;;;23.04;39.63
27425;BME280;15244;49.088;11.886;2023-09-08T01:37:51;96181.91;;;23.00;39.70
27425;BME280;15244;49.088;11.886;2023-09-08T01:42:53;96172.88;;;22.96;39.52
27425;BME280;15244;49.088;11.886;2023-09-08T01:47:54;96170.25;;;22.92;39.79
27425;BME280;15244;49.088;11.886;2023-09-08T01:52:56;96172.72;;;22.90;39.76
27425;BME280;15244;49.088;11.886;2023-09-08T01:57:58;96170.06;;;22.87;40.01
27425;BME280;15244;49.088;11.886;2023-09-08T02:02:59;96165.09;;;22.82;39.97
27425;BME280;15244;49.088;11.886;2023-09-08T02:08:02;96162.91;;;22.77;40.14
27425;BME280;15244;49.088;11.886;2023-09-08T02:13:06;96171.03;;;22.71;40.22
27425;BME280;15244;49.088;11.886;2023-09-08T02:18:08;96160.50;;;22.66;40.12
27425;BME280;15244;49.088;11.886;2023-09-08T02:23:10;96156.75;;;22.60;40.34
27425;BME280;15244;49.088;11.886;2023-09-08T02:28:12;96156.91;;;22.56;40.46
27425;BME280;15244;49.088;11.886;2023-09-08T02:33:14;96154.72;;;22.51;40.68
27425;BME280;15244;49.088;11.886;2023-09-08T02:38:16;96151.28;;;22.47;40.36
27425;BME280;15244;49.088;11.886;2023-09-08T02:43:17;96151.41;;;22.43;40.62
27425;BME280;15244;49.088;11.886;2023-09-08T02:48:19;96149.84;;;22.42;40.65
27425;BME280;15244;49.088;11.886;2023-09-08T02:53:23;96157.06;;;22.40;40.62
27425;BME280;15244;49.088;11.886;2023-09-08T02:58:25;96155.22;;;22.37;40.64
27425;BME280;15244;49.088;11.886;2023-09-08T03:03:27;96161.66;;;22.34;40.70
27425;BME280;15244;49.088;11.886;2023-09-08T03:08:29;96150.34;;;22.28;41.08
27425;BME280;15244;49.088;11.886;2023-09-08T03:13:32;96154.03;;;22.25;41.13
27425;BME280;15244;49.088;11.886;2023-09-08T03:18:36;96159.72;;;22.21;40.99
27425;BME280;15244;49.088;11.886;2023-09-08T03:23:41;96154.69;;;22.16;41.21
27425;BME280;15244;49.088;11.886;2023-09-08T03:28:44;96163.94;;;22.13;40.91
27425;BME280;15244;49.088;11.886;2023-09-08T03:33:45;96162.50;;;22.08;40.95
27425;BME280;15244;49.088;11.886;2023-09-08T03:38:48;96165.38;;;22.05;41.16
27425;BME280;15244;49.088;11.886;2023-09-08T03:43:50;96163.19;;;22.00;41.14
27425;BME280;15244;49.088;11.886;2023-09-08T03:48:51;96157.00;;;21.96;41.27
27425;BME280;15244;49.088;11.886;2023-09-08T03:53:55;96142.00;;;21.93;41.54
27425;BME280;15244;49.088;11.886;2023-09-08T03:58:58;96151.66;;;21.89;41.75
27425;BME280;15244;49.088;11.886;2023-09-08T04:04:00;96155.78;;;21.84;41.78
27425;BME280;15244;49.088;11.886;2023-09-08T04:09:02;96158.69;;;21.80;41.74
27425;BME280;15244;49.088;11.886;2023-09-08T04:14:04;96161.56;;;21.77;41.78
27425;BME280;15244;49.088;11.886;2023-09-08T04:19:06;96155.38;;;21.73;41.88
27425;BME280;15244;49.088;11.886;2023-09-08T04:24:07;96163.78;;;21.69;42.17
27425;BME280;15244;49.088;11.886;2023-09-08T04:29:11;96162.34;;;21.64;41.97
27425;BME280;15244;49.088;11.886;2023-09-08T04:34:14;96168.03;;;21.61;42.16
27425;BME280;15244;49.088;11.886;2023-09-08T04:39:16;96170.13;;;21.57;42.07
27425;BME280;15244;49.088;11.886;2023-09-08T04:44:18;96161.16;;;21.53;42.44
27425;BME280;15244;49.088;11.886;2023-09-08T04:49:20;96175.94;;;21.50;42.49
27425;BME280;15244;49.088;11.886;2023-09-08T04:54:23;96179.56;;;21.47;42.50
27425;BME280;15244;49.088;11.886;2023-09-08T04:59:33;96181.25;;;21.44;42.74
27425;BME280;15244;49.088;11.886;2023-09-08T05:04:35;96188.00;;;21.43;42.81
27425;BME280;15244;49.088;11.886;2023-09-08T05:09:37;96190.03;;;21.42;43.08
27425;BME280;15244;49.088;11.886;2023-09-08T05:14:39;96192.78;;;21.42;43.00
27425;BME280;15244;49.088;11.886;2023-09-08T05:19:41;96191.22;;;21.41;43.07
27425;BME280;15244;49.088;11.886;2023-09-08T05:24:42;96192.78;;;21.42;43.17
27425;BME280;15244;49.088;11.886;2023-09-08T05:29:44;96200.66;;;21.44;43.08
27425;BME280;15244;49.088;11.886;2023-09-08T05:34:47;96194.66;;;21.46;43.36
27425;BME280;15244;49.088;11.886;2023-09-08T05:39:49;96200.56;;;21.48;43.19
27425;BME280;15244;49.088;11.886;2023-09-08T05:44:50;96203.22;;;21.51;43.42
27425;BME280;15244;49.088;11.886;2023-09-08T05:49:52;96210.22;;;21.56;43.59
27425;BME280;15244;49.088;11.886;2023-09-08T05:54:54;96213.66;;;21.60;43.45
27425;BME280;15244;49.088;11.886;2023-09-08T05:59:55;96206.44;;;21.62;43.37
27425;BME280;15244;49.088;11.886;2023-09-08T06:04:57;96196.00;;;21.67;43.34
27425;BME280;15244;49.088;11.886;2023-09-08T06:09:59;96208.53;;;21.71;43.71
27425;BME280;15244;49.088;11.886;2023-09-08T06:15:05;96203.97;;;21.77;43.47
27425;BME280;15244;49.088;11.886;2023-09-08T06:20:08;96206.19;;;21.82;43.59
27425;BME280;15244;49.088;11.886;2023-09-08T06:25:10;96210.41;;;21.87;43.95
27425;BME280;15244;49.088;11.886;2023-09-08T06:30:12;96210.94;;;21.95;43.82
27425;BME280;15244;49.088;11.886;2023-09-08T06:35:18;96205.63;;;22.00;43.94
27425;BME280;15244;49.088;11.886;2023-09-08T06:40:20;96217.69;;;22.06;44.04
27425;BME280;15244;49.088;11.886;2023-09-08T06:45:21;96217.91;;;22.12;43.76
27425;BME280;15244;49.088;11.886;2023-09-08T06:50:23;96222.44;;;22.19;43.67
27425;BME280;15244;49.088;11.886;2023-09-08T06:55:25;96217.47;;;22.26;43.66
27425;BME280;15244;49.088;11.886;2023-09-08T07:00:27;96217.22;;;22.34;43.84
27425;BME280;15244;49.088;11.886;2023-09-08T07:05:29;96210.19;;;22.42;43.78
27425;BME280;15244;49.088;11.886;2023-09-08T07:10:32;96213.94;;;22.48;43.97
27425;BME280;15244;49.088;11.886;2023-09-08T07:15:34;96227.91;;;22.57;43.61
27425;BME280;15244;49.088;11.886;2023-09-08T07:20:36;96214.97;;;22.63;43.67
27425;BME280;15244;49.088;11.886;2023-09-08T07:25:37;96216.28;;;22.71;43.56
27425;BME280;15244;49.088;11.886;2023-09-08T07:30:39;96212.78;;;22.80;43.68
27425;BME280;15244;49.088;11.886;2023-09-08T07:35:42;96220.75;;;22.91;43.80
27425;BME280;15244;49.088;11.886;2023-09-08T07:40:43;96220.06;;;23.00;43.80
27425;BME280;15244;49.088;11.886;2023-09-08T07:45:45;96208.97;;;23.09;43.70
27425;BME280;15244;49.088;11.886;2023-09-08T07:50:47;96211.69;;;23.22;43.83
27425;BME280;15244;49.088;11.886;2023-09-08T07:55:48;96213.28;;;23.32;43.65
27425;BME280;15244;49.088;11.886;2023-09-08T08:00:50;96217.69;;;23.42;43.72
27425;BME280;15244;49.088;11.886;2023-09-08T08:05:52;96214.00;;;23.54;43.61
27425;BME280;15244;49.088;11.886;2023-09-08T08:10:53;96216.38;;;23.65;42.81
27425;BME280;15244;49.088;11.886;2023-09-08T08:15:55;96216.00;;;23.76;42.65
27425;BME280;15244;49.088;11.886;2023-09-08T08:20:57;96214.34;;;23.88;42.32
27425;BME280;15244;49.088;11.886;2023-09-08T08:25:58;96212.19;;;24.01;42.12
27425;BME280;15244;49.088;11.886;2023-09-08T08:31:00;96205.72;;;24.13;42.12
27425;BME280;15244;49.088;11.886;2023-09-08T08:36:01;96200.00;;;24.26;41.87
27425;BME280;15244;49.088;11.886;2023-09-08T08:41:04;96207.47;;;24.38;41.34
27425;BME280;15244;49.088;11.886;2023-09-08T08:46:06;96201.28;;;24.53;41.22
27425;BME280;15244;49.088;11.886;2023-09-08T08:51:10;96199.09;;;24.66;40.92
27425;BME280;15244;49.088;11.886;2023-09-08T08:56:12;96209.81;;;24.77;39.90
27425;BME280;15244;49.088;11.886;2023-09-08T09:01:15;96209.50;;;24.84;39.28
27425;BME280;15244;49.088;11.886;2023-09-08T09:06:18;96208.25;;;24.94;39.12
27425;BME280;15244;49.088;11.886;2023-09-08T09:11:19;96202.31;;;25.01;38.75
27425;BME280;15244;49.088;11.886;2023-09-08T09:16:21;96200.91;;;25.15;38.23
27425;BME280;15244;49.088;11.886;2023-09-08T09:21:23;96200.44;;;25.26;38.23
27425;BME280;15244;49.088;11.886;2023-09-08T09:26:26;96200.25;;;25.39;38.08
27425;BME280;15244;49.088;11.886;2023-09-08T09:31:28;96199.28;;;25.51;37.90
27425;BME280;15244;49.088;11.886;2023-09-08T09:36:31;96200.59;;;25.65;37.53
27425;BME280;15244;49.088;11.886;2023-09-08T09:41:33;96187.22;;;25.78;37.16
27425;BME280;15244;49.088;11.886;2023-09-08T09:46:35;96200.50;;;25.92;36.63
27425;BME280;15244;49.088;11.886;2023-09-08T09:51:40;96193.13;;;26.04;37.02
27425;BME280;15244;49.088;11.886;2023-09-08T09:56:44;96188.38;;;26.20;37.49
27425;BME280;15244;49.088;11.886;2023-09-08T10:01:47;96190.47;;;26.34;37.72
27425;BME280;15244;49.088;11.886;2023-09-08T10:06:49;96191.28;;;26.49;37.50
27425;BME280;15244;49.088;11.886;2023-09-08T10:11:54;96198.94;;;26.64;37.13
27425;BME280;15244;49.088;11.886;2023-09-08T10:16:57;96188.28;;;26.77;36.23
27425;BME280;15244;49.088;11.886;2023-09-08T10:22:02;96189.72;;;26.87;36.19
27425;BME280;15244;49.088;11.886;2023-09-08T10:27:09;96181.06;;;27.00;36.15
27425;BME280;15244;49.088;11.886;2023-09-08T10:32:12;96182.50;;;27.10;35.89
27425;BME280;15244;49.088;11.886;2023-09-08T10:37:21;96180.97;;;27.24;36.13
27425;BME280;15244;49.088;11.886;2023-09-08T10:42:25;96190.13;;;27.39;35.53
27425;BME280;15244;49.088;11.886;2023-09-08T10:47:33;96183.47;;;27.52;34.79
27425;BME280;15244;49.088;11.886;2023-09-08T10:52:38;96173.22;;;27.63;34.50
27425;BME280;15244;49.088;11.886;2023-09-08T10:57:44;96172.13;;;27.76;34.29
27425;BME280;15244;49.088;11.886;2023-09-08T11:02:50;96166.97;;;27.89;33.84
27425;BME280;15244;49.088;11.886;2023-09-08T11:07:52;96152.16;;;28.03;34.15
27425;BME280;15244;49.088;11.886;2023-09-08T11:12:55;96163.31;;;28.18;34.15
27425;BME280;15244;49.088;11.886;2023-09-08T11:17:57;96155.31;;;28.31;33.73
27425;BME280;15244;49.088;11.886;2023-09-08T11:22:58;96150.13;;;28.45;34.27
27425;BME280;15244;49.088;11.886;2023-09-08T11:28:01;96160.22;;;28.57;33.60
27425;BME280;15244;49.088;11.886;2023-09-08T11:33:02;96154.22;;;28.70;33.08
27425;BME280;15244;49.088;11.886;2023-09-08T11:38:04;96150.28;;;28.82;33.39
27425;BME280;15244;49.088;11.886;2023-09-08T11:43:06;96153.47;;;28.95;33.39
27425;BME280;15244;49.088;11.886;2023-09-08T11:48:08;96151.03;;;29.09;33.45
27425;BME280;15244;49.088;11.886;2023-09-08T11:53:10;96148.84;;;29.19;33.64
27425;BME280;15244;49.088;11.886;2023-09-08T11:58:12;96150.75;;;29.33;33.21
27425;BME280;15244;49.088;11.886;2023-09-08T12:03:15;96157.00;;;29.48;33.19
27425;BME280;15244;49.088;11.886;2023-09-08T12:08:17;96143.28;;;29.62;32.31
27425;BME280;15244;49.088;11.886;2023-09-08T12:13:23;96144.16;;;29.73;32.31
27425;BME280;15244;49.088;11.886;2023-09-08T12:18:39;96146.75;;;29.83;31.77
27425;BME280;15244;49.088;11.886;2023-09-08T12:23:48;96146.84;;;29.94;32.24
27425;BME280;15244;49.088;11.886;2023-09-08T12:28:50;96148.94;;;30.05;31.83
27425;BME280;15244;49.088;11.886;2023-09-08T12:33:52;96149.75;;;30.16;31.59
27425;BME280;15244;49.088;11.886;2023-09-08T12:38:55;96144.91;;;30.22;31.51
27425;BME280;15244;49.088;11.886;2023-09-08T12:43:56;96146.00;;;30.31;31.69
27425;BME280;15244;49.088;11.886;2023-09-08T12:48:58;96145.28;;;30.41;31.78
27425;BME280;15244;49.088;11.886;2023-09-08T12:54:00;96142.97;;;30.45;31.54
27425;BME280;15244;49.088;11.886;2023-09-08T12:59:01;96133.56;;;30.54;30.88
27425;BME280;15244;49.088;11.886;2023-09-08T13:04:03;96133.84;;;30.62;31.47
27425;BME280;15244;49.088;11.886;2023-09-08T13:09:05;96130.00;;;30.71;30.02
27425;BME280;15244;49.088;11.886;2023-09-08T13:14:08;96119.03;;;30.78;29.33
27425;BME280;15244;49.088;11.886;2023-09-08T13:19:10;96124.19;;;30.85;29.33
27425;BME280;15244;49.088;11.886;2023-09-08T13:24:11;96111.41;;;30.96;29.15
27425;BME280;15244;49.088;11.886;2023-09-08T13:29:14;96117.56;;;31.05;29.92
27425;BME280;15244;49.088;11.886;2023-09-08T13:34:15;96114.50;;;31.15;28.56
27425;BME280;15244;49.088;11.886;2023-09-08T13:39:17;96109.63;;;31.21;28.32
27425;BME280;15244;49.088;11.886;2023-09-08T13:44:20;96106.53;;;31.30;28.26
27425;BME280;15244;49.088;11.886;2023-09-08T13:49:23;96095.28;;;31.41;28.14
27425;BME280;15244;49.088;11.886;2023-09-08T13:54:27;96093.72;;;31.51;27.81
27425;BME280;15244;49.088;11.886;2023-09-08T13:59:31;96091.41;;;31.61;27.57
27425;BME280;15244;49.088;11.886;2023-09-08T14:04:36;96090.09;;;31.73;27.31
27425;BME280;15244;49.088;11.886;2023-09-08T14:09:42;96082.38;;;31.85;27.76
27425;BME280;15244;49.088;11.886;2023-09-08T14:14:54;96073.66;;;31.94;27.17
27425;BME280;15244;49.088;11.886;2023-09-08T14:19:56;96066.97;;;32.03;27.96
27425;BME280;15244;49.088;11.886;2023-09-08T14:24:57;96061.53;;;32.16;27.72
27425;BME280;15244;49.088;11.886;2023-09-08T14:29:59;96062.75;;;32.27;27.83
27425;BME280;15244;49.088;11.886;2023-09-08T14:35:01;96076.53;;;32.36;27.29
27425;BME280;15244;49.088;11.886;2023-09-08T14:40:03;96065.19;;;32.47;26.78
27425;BME280;15244;49.088;11.886;2023-09-08T14:45:05;96071.31;;;32.57;26.33
27425;BME280;15244;49.088;11.886;2023-09-08T14:50:07;96059.69;;;32.66;26.79
27425;BME280;15244;49.088;11.886;2023-09-08T14:55:08;96061.16;;;32.78;27.53
27425;BME280;15244;49.088;11.886;2023-09-08T15:00:11;96064.16;;;32.92;26.84
27425;BME280;15244;49.088;11.886;2023-09-08T15:05:13;96056.38;;;33.03;25.73
27425;BME280;15244;49.088;11.886;2023-09-08T15:10:14;96059.13;;;33.15;26.13
27425;BME280;15244;49.088;11.886;2023-09-08T15:15:16;96052.03;;;33.27;26.19
27425;BME280;15244;49.088;11.886;2023-09-08T15:20:20;96054.78;;;33.38;26.20
27425;BME280;15244;49.088;11.886;2023-09-08T15:25:22;96055.19;;;33.48;25.97
27425;BME280;15244;49.088;11.886;2023-09-08T15:30:24;96057.16;;;33.59;25.66
27425;BME280;15244;49.088;11.886;2023-09-08T15:35:25;96059.84;;;33.70;25.68
27425;BME280;15244;49.088;11.886;2023-09-08T15:40:27;96051.25;;;33.81;25.39
27425;BME280;15244;49.088;11.886;2023-09-08T15:45:28;96054.25;;;33.89;25.23
27425;BME280;15244;49.088;11.886;2023-09-08T15:50:30;96056.25;;;33.94;25.41
27425;BME280;15244;49.088;11.886;2023-09-08T15:55:32;96050.53;;;34.00;24.85
27425;BME280;15244;49.088;11.886;2023-09-08T16:00:33;96055.34;;;34.05;24.96
27425;BME280;15244;49.088;11.886;2023-09-08T16:05:35;96053.25;;;34.11;25.13
27425;BME280;15244;49.088;11.886;2023-09-08T16:10:36;96051.09;;;34.17;25.16
27425;BME280;15244;49.088;11.886;2023-09-08T16:15:38;96049.50;;;34.22;25.36
27425;BME280;15244;49.088;11.886;2023-09-08T16:20:40;96054.59;;;34.23;25.12
27425;BME280;15244;49.088;11.886;2023-09-08T16:25:43;96046.91;;;34.24;25.26
27425;BME280;15244;49.088;11.886;2023-09-08T16:30:44;96052.09;;;34.20;25.19
27425;BME280;15244;49.088;11.886;2023-09-08T16:35:46;96047.50;;;34.17;25.12
27425;BME280;15244;49.088;11.886;2023-09-08T16:40:48;96045.53;;;34.12;25.29
27425;BME280;15244;49.088;11.886;2023-09-08T16:45:49;96047.88;;;34.07;25.35
27425;BME280;15244;49.088;11.886;2023-09-08T16:50:51;96052.81;;;34.01;25.45
27425;BME280;15244;49.088;11.886;2023-09-08T16:55:52;96052.13;;;33.95;25.46
27425;BME280;15244;49.088;11.886;2023-09-08T17:00:54;96045.00;;;33.88;25.57
27425;BME280;15244;49.088;11.886;2023-09-08T17:05:55;96054.38;;;33.78;25.88
27425;BME280;15244;49.088;11.886;2023-09-08T17:11:03;96049.38;;;33.65;25.98
27425;BME280;15244;49.088;11.886;2023-09-08T17:16:05;96043.66;;;33.46;26.38
27425;BME280;15244;49.088;11.886;2023-09-08T17:21:06;96049.81;;;33.20;26.33
27425;BME280;15244;49.088;11.886;2023-09-08T17:26:08;96053.91;;;32.89;26.31
27425;BME280;15244;49.088;11.886;2023-09-08T17:31:09;96051.81;;;32.59;27.10
27425;BME280;15244;49.088;11.886;2023-09-08T17:36:11;96056.91;;;32.19;27.52
27425;BME280;15244;49.088;11.886;2023-09-08T17:41:13;96057.53;;;31.84;27.60
27425;BME280;15244;49.088;11.886;2023-09-08T17:46:14;96059.16;;;31.51;28.02
27425;BME280;15244;49.088;11.886;2023-09-08T17:51:16;96067.63;;;31.17;27.97
27425;BME280;15244;49.088;11.886;2023-09-08T17:56:18;96068.16;;;30.87;27.85
27425;BME280;15244;49.088;11.886;2023-09-08T18:01:20;96070.38;;;30.61;28.42
27425;BME280;15244;49.088;11.886;2023-09-08T18:06:22;96062.94;;;30.41;28.64
27425;BME280;15244;49.088;11.886;2023-09-08T18:11:23;96064.13;;;30.23;28.41
27425;BME280;15244;49.088;11.886;2023-09-08T18:16:25;96069.19;;;30.08;27.99
27425;BME280;15244;49.088;11.886;2023-09-08T18:21:27;96069.66;;;29.95;28.04
27425;BME280;15244;49.088;11.886;2023-09-08T18:26:29;96068.59;;;29.81;27.89
27425;BME280;15244;49.088;11.886;2023-09-08T18:31:32;96071.84;;;29.68;27.91
27425;BME280;15244;49.088;11.886;2023-09-08T18:36:34;96073.03;;;29.56;28.27
27425;BME280;15244;49.088;11.886;2023-09-08T18:41:36;96067.31;;;29.45;28.08
27425;BME280;15244;49.088;11.886;2023-09-08T18:46:39;96067.28;;;29.33;27.96
27425;BME280;15244;49.088;11.886;2023-09-08T18:51:41;96064.41;;;29.22;28.22
27425;BME280;15244;49.088;11.886;2023-09-08T18:56:42;96072.72;;;29.11;28.09
27425;BME280;15244;49.088;11.886;2023-09-08T19:01:44;96082.28;;;28.99;28.57
27425;BME280;15244;49.088;11.886;2023-09-08T19:06:46;96073.50;;;28.85;28.94
27425;BME280;15244;49.088;11.886;2023-09-08T19:11:47;96077.19;;;28.71;29.56
27425;BME280;15244;49.088;11.886;2023-09-08T19:16:49;96082.16;;;28.56;29.25
27425;BME280;15244;49.088;11.886;2023-09-08T19:21:51;96078.38;;;28.38;29.70
27425;BME280;15244;49.088;11.886;2023-09-08T19:26:53;96076.47;;;28.24;29.86
27425;BME280;15244;49.088;11.886;2023-09-08T19:31:55;96073.75;;;28.09;30.35
27425;BME280;15244;49.088;11.886;2023-09-08T19:36:56;96075.84;;;27.94;30.21
27425;BME280;15244;49.088;11.886;2023-09-08T19:41:58;96078.41;;;27.77;30.38
27425;BME280;15244;49.088;11.886;2023-09-08T19:47:00;96079.22;;;27.62;30.40
27425;BME280;15244;49.088;11.886;2023-09-08T19:52:01;96073.69;;;27.48;30.30
27425;BME280;15244;49.088;11.886;2023-09-08T19:57:04;96069.13;;;27.30;30.65
27425;BME280;15244;49.088;11.886;2023-09-08T20:02:06;96075.78;;;27.17;30.99
27425;BME280;15244;49.088;11.886;2023-09-08T20:07:08;96068.47;;;27.05;31.23
27425;BME280;15244;49.088;11.886;2023-09-08T20:12:10;96067.03;;;26.95;31.39
27425;BME280;15244;49.088;11.886;2023-09-08T20:17:12;96065.88;;;26.87;31.35
27425;BME280;15244;49.088;11.886;2023-09-08T20:22:13;96069.06;;;26.79;31.75
27425;BME280;15244;49.088;11.886;2023-09-08T20:27:15;96067.91;;;26.71;31.63
27425;BME280;15244;49.088;11.886;2023-09-08T20:32:17;96070.31;;;26.64;31.99
27425;BME280;15244;49.088;11.886;2023-09-08T20:37:18;96070.22;;;26.58;31.93
27425;BME280;15244;49.088;11.886;2023-09-08T20:42:20;96074.63;;;26.50;32.44
27425;BME280;15244;49.088;11.886;2023-09-08T20:47:22;96075.00;;;26.43;32.68
27425;BME280;15244;49.088;11.886;2023-09-08T20:52:23;96080.69;;;26.33;32.72
27425;BME280;15244;49.088;11.886;2023-09-08T20:57:25;96075.84;;;26.19;32.62
27425;BME280;15244;49.088;11.886;2023-09-08T21:02:26;96068.47;;;26.07;32.92
27425;BME280;15244;49.088;11.886;2023-09-08T21:07:28;96076.91;;;25.98;32.91
27425;BME280;15244;49.088;11.886;2023-09-08T21:12:29;96063.03;;;25.88;33.03
27425;BME280;15244;49.088;11.886;2023-09-08T21:17:31;96062.13;;;25.82;33.11
27425;BME280;15244;49.088;11.886;2023-09-08T21:22:33;96067.59;;;25.77;33.76
27425;BME280;15244;49.088;11.886;2023-09-08T21:27:34;96063.13;;;25.70;33.98
27425;BME280;15244;49.088;11.886;2023-09-08T21:32:36;96064.28;;;25.63;33.93
27425;BME280;15244;49.088;11.886;2023-09-08T21:37:40;96070.22;;;25.56;34.22
27425;BME280;15244;49.088;11.886;2023-09-08T21:42:42;96060.94;;;25.50;34.01
27425;BME280;15244;49.088;11.886;2023-09-08T21:47:43;96066.38;;;25.44;33.92
27425;BME280;15244;49.088;11.886;2023-09-08T21:52:48;96060.69;;;25.39;33.83
27425;BME280;15244;49.088;11.886;2023-09-08T21:57:54;96063.66;;;25.35;34.04
27425;BME280;15244;49.088;11.886;2023-09-08T22:02:57;96065.84;;;25.31;34.15
27425;BME280;15244;49.088;11.886;2023-09-08T22:07:59;96069.28;;;25.26;34.68
27425;BME280;15244;49.088;11.886;2023-09-08T22:13:00;96065.13;;;25.21;34.53
27425;BME280;15244;49.088;11.886;2023-09-08T22:18:02;96068.84;;;25.18;34.75
27425;BME280;15244;49.088;11.886;2023-09-08T22:23:04;96064.34;;;25.12;35.28
27425;BME280;15244;49.088;11.886;2023-09-08T22:28:06;96054.78;;;25.03;35.32
27425;BME280;15244;49.088;11.886;2023-09-08T22:33:08;96056.69;;;24.97;35.37
27425;BME280;15244;49.088;11.886;2023-09-08T22:38:10;96053.47;;;24.90;35.79
27425;BME280;15244;49.088;11.886;2023-09-08T22:43:11;96051.94;;;24.79;35.89
27425;BME280;15244;49.088;11.886;2023-09-08T22:48:13;96050.13;;;24.67;35.85
27425;BME280;15244;49.088;11.886;2023-09-08T22:53:16;96054.94;;;24.57;36.24
27425;BME280;15244;49.088;11.886;2023-09-08T22:58:18;96055.28;;;24.50;36.37
27425;BME280;15244;49.088;11.886;2023-09-08T23:03:20;96049.53;;;24.44;36.60
27425;BME280;15244;49.088;11.886;2023-09-08T23:08:22;96054.47;;;24.40;36.91
27425;BME280;15244;49.088;11.886;2023-09-08T23:13:23;96052.63;;;24.37;37.03
27425;BME280;15244;49.088;11.886;2023-09-08T23:18:25;96041.81;;;24.30;37.22
27425;BME280;15244;49.088;11.886;2023-09-08T23:23:27;96037.34;;;24.23;37.52
27425;BME280;15244;49.088;11.886;2023-09-08T23:28:28;96034.88;;;24.16;37.43
27425;BME280;15244;49.088;11.886;2023-09-08T23:33:30;96036.88;;;24.07;37.80
27425;BME280;15244;49.088;11.886;2023-09-08T23:38:32;96038.44;;;23.98;38.32
27425;BME280;15244;49.088;11.886;2023-09-08T23:43:33;96043.06;;;23.92;38.56
27425;BME280;15244;49.088;11.886;2023-09-08T23:48:36;96033.63;;;23.90;38.85
27425;BME280;15244;49.088;11.886;2023-09-08T23:53:38;96024.81;;;23.82;38.47
27425;BME280;15244;49.088;11.886;2023-09-08T23:58:40;96028.69;;;23.75;38.81
